Time;durP1;ratioP1;P1;durP2;ratioP2;P2;SDS_P1;SDS_P2;PMS_P1;PMS_P2;Temp;Humidity;BMP_temperature;BMP_pressure;BME280_temperature;BME280_humidity;BME280_pressure;Samples;Min_cycle;Max_cycle;Signal;HPM_P1;HPM_P2
2021/12/24 00:00:06;;;;;;;62.67;27.63;;;;;;;6.50;100.00;100301.16;5035004;28;20105;-79
2021/12/24 00:02:31;;;;;;;54.60;24.60;;;;;;;6.52;100.00;100305.25;5034736;28;20041;-80
2021/12/24 00:04:57;;;;;;;58.80;24.95;;;;;;;6.51;100.00;100307.94;5050207;28;20041;-79
2021/12/24 00:07:22;;;;;;;55.35;23.92;;;;;;;6.55;100.00;100310.09;5043228;28;20037;-79
2021/12/24 00:09:48;;;;;;;61.10;25.25;;;;;;;6.52;100.00;100300.09;5034250;28;20605;-81
2021/12/24 00:12:18;;;;;;;61.60;24.98;;;;;;;6.57;100.00;100307.38;5036679;28;20036;-81
2021/12/24 00:14:49;;;;;;;53.55;24.35;;;;;;;6.55;100.00;100301.56;5042064;28;20611;-82
2021/12/24 00:17:17;;;;;;;61.53;25.80;;;;;;;6.58;100.00;100298.72;5044083;28;20037;-82
2021/12/24 00:23:16;;;;;;;54.13;23.75;;;;;;;6.63;100.00;100288.81;5017856;28;20064;-78
2021/12/24 00:36:30;;;;;;;56.05;23.55;;;;;;;6.60;100.00;100286.50;5032674;28;20030;-81
2021/12/24 00:38:57;;;;;;;51.17;23.02;;;;;;;6.62;100.00;100289.75;5036862;28;20467;-80
2021/12/24 00:41:22;;;;;;;50.65;21.67;;;;;;;6.68;100.00;100278.06;5029434;28;20038;-80
2021/12/24 00:43:48;;;;;;;43.78;22.20;;;;;;;6.61;100.00;100277.78;5018003;28;20520;-80
2021/12/24 00:46:13;;;;;;;48.17;22.35;;;;;;;6.57;100.00;100272.16;5029982;28;20496;-80
2021/12/24 00:48:39;;;;;;;48.50;22.48;;;;;;;6.58;100.00;100278.09;5010691;28;20048;-78
2021/12/24 00:56:24;;;;;;;51.40;22.65;;;;;;;6.64;100.00;100267.22;5042386;28;20513;-80
2021/12/24 00:58:49;;;;;;;51.75;23.77;;;;;;;6.57;100.00;100256.69;5025984;28;20471;-81
2021/12/24 01:01:16;;;;;;;45.60;23.25;;;;;;;6.64;100.00;100262.06;5030984;28;20140;-80
2021/12/24 01:03:42;;;;;;;53.80;24.63;;;;;;;6.63;100.00;100257.88;5023023;28;20080;-80
2021/12/24 01:06:08;;;;;;;53.13;24.88;;;;;;;6.65;100.00;100257.72;5026029;28;20064;-80
2021/12/24 01:08:34;;;;;;;54.88;25.42;;;;;;;6.66;100.00;100265.31;5042324;28;20472;-80
2021/12/24 01:11:04;;;;;;;58.08;25.45;;;;;;;6.70;100.00;100255.53;5028009;28;20456;-80
2021/12/24 01:13:30;;;;;;;56.60;25.92;;;;;;;6.71;100.00;100257.16;5026228;28;20044;-80
2021/12/24 01:16:01;;;;;;;55.95;25.85;;;;;;;6.69;100.00;100252.16;5027968;28;20025;-80
2021/12/24 01:18:46;;;;;;;52.42;25.67;;;;;;;6.75;100.00;100248.19;5027673;28;20044;-77
2021/12/24 01:23:57;;;;;;;53.78;25.75;;;;;;;6.77;100.00;100247.06;5033081;28;20037;-79
2021/12/24 01:40:19;;;;;;;59.10;27.20;;;;;;;6.94;100.00;100242.09;5026592;28;20029;-82
2021/12/24 01:42:45;;;;;;;64.50;29.83;;;;;;;6.94;100.00;100237.75;5020246;28;20482;-80
2021/12/24 01:45:15;;;;;;;64.18;29.02;;;;;;;6.88;100.00;100247.84;5010112;28;20033;-80
2021/12/24 01:47:40;;;;;;;64.75;30.10;;;;;;;6.85;100.00;100248.13;5007599;28;20044;-81
2021/12/24 01:50:07;;;;;;;66.97;30.05;;;;;;;6.85;100.00;100248.13;5009419;28;20029;-82
2021/12/24 01:52:32;;;;;;;63.00;27.58;;;;;;;6.88;100.00;100253.81;5006041;28;20025;-80
2021/12/24 01:54:57;;;;;;;70.70;28.98;;;;;;;6.90;100.00;100256.25;5043275;28;20044;-79
2021/12/24 01:57:23;;;;;;;63.35;28.73;;;;;;;6.88;100.00;100246.06;5025126;28;20037;-82
2021/12/24 01:59:50;;;;;;;65.68;29.88;;;;;;;6.88;100.00;100255.56;5010431;28;20038;-82
2021/12/24 02:02:15;;;;;;;66.28;29.80;;;;;;;6.87;100.00;100246.22;5013313;28;20026;-80
2021/12/24 02:04:41;;;;;;;72.55;30.15;;;;;;;6.90;100.00;100254.47;5012950;28;20033;-81
2021/12/24 02:07:07;;;;;;;65.13;29.90;;;;;;;6.95;100.00;100241.97;5027524;28;20573;-80
2021/12/24 02:09:34;;;;;;;63.85;31.02;;;;;;;7.02;100.00;100242.97;5026216;28;20068;-80
2021/12/24 02:12:01;;;;;;;78.78;32.08;;;;;;;6.97;100.00;100242.63;5030820;28;20381;-81
2021/12/24 02:14:34;;;;;;;71.97;31.17;;;;;;;7.04;100.00;100232.53;5012996;28;20025;-79
2021/12/24 02:30:30;;;;;;;74.88;31.05;;;;;;;7.04;100.00;100226.56;5053895;28;20036;-79
2021/12/24 02:32:55;;;;;;;68.93;30.27;;;;;;;7.12;100.00;100219.72;5028924;28;20025;-83
2021/12/24 02:35:21;;;;;;;68.97;30.15;;;;;;;7.14;100.00;100215.22;5031633;28;20666;-79
2021/12/24 02:37:48;;;;;;;70.95;30.52;;;;;;;7.08;100.00;100213.22;5030294;28;20064;-81
2021/12/24 02:40:13;;;;;;;65.43;31.13;;;;;;;7.08;100.00;100205.47;5012870;28;20041;-78
2021/12/24 02:42:39;;;;;;;66.85;29.13;;;;;;;7.09;100.00;100201.97;5044426;28;20389;-79
2021/12/24 02:45:05;;;;;;;67.55;29.70;;;;;;;7.07;100.00;100203.06;5011910;28;20032;-79
2021/12/24 02:47:43;;;;;;;59.40;27.58;;;;;;;7.16;100.00;100207.34;5013421;28;20071;-79
2021/12/24 02:55:26;;;;;;;61.13;28.15;;;;;;;7.10;100.00;100205.34;5046743;28;21873;-80
2021/12/24 02:57:51;;;;;;;53.03;26.80;;;;;;;7.20;100.00;100191.41;5026466;28;20033;-80
2021/12/24 03:00:25;;;;;;;62.53;26.67;;;;;;;7.17;100.00;100196.06;5013696;28;20040;-80
2021/12/24 03:02:51;;;;;;;56.05;26.83;;;;;;;7.14;100.00;100194.59;5037526;28;20032;-79
2021/12/24 03:05:18;;;;;;;61.13;27.10;;;;;;;7.13;100.00;100190.38;5012382;28;20037;-80
2021/12/24 03:07:45;;;;;;;51.97;25.40;;;;;;;7.16;100.00;100191.88;5012851;28;20048;-80
2021/12/24 03:10:14;;;;;;;54.17;26.38;;;;;;;7.09;100.00;100188.25;5028584;28;20163;-80
2021/12/24 03:12:44;;;;;;;58.40;27.02;;;;;;;7.09;100.00;100199.38;5037423;28;20029;-80
2021/12/24 03:15:12;;;;;;;52.20;25.52;;;;;;;7.06;100.00;100204.81;5030234;28;20034;-79
2021/12/24 03:17:37;;;;;;;59.80;25.77;;;;;;;7.04;100.00;100199.00;5020469;28;20098;-80
2021/12/24 03:20:08;;;;;;;50.60;25.20;;;;;;;7.12;100.00;100201.66;5032355;28;20033;-78
2021/12/24 03:25:04;;;;;;;50.15;24.58;;;;;;;7.13;100.00;100202.47;5028506;28;20083;-79
2021/12/24 03:27:30;;;;;;;53.83;24.83;;;;;;;7.13;100.00;100221.31;5013834;28;20098;-79
2021/12/24 03:29:57;;;;;;;49.67;24.67;;;;;;;7.11;100.00;100215.50;5027343;28;20454;-79
2021/12/24 03:32:24;;;;;;;49.33;23.50;;;;;;;7.13;100.00;100211.00;5026078;28;20025;-80
2021/12/24 03:34:51;;;;;;;48.65;24.73;;;;;;;7.09;100.00;100211.47;5029385;28;20060;-79
2021/12/24 03:37:18;;;;;;;46.38;23.85;;;;;;;7.10;100.00;100203.59;5030557;28;20155;-80
2021/12/24 03:39:44;;;;;;;50.75;24.17;;;;;;;7.14;100.00;100196.34;5029690;28;20129;-79
2021/12/24 03:42:10;;;;;;;50.38;24.48;;;;;;;7.12;100.00;100204.25;5026649;28;20393;-79
2021/12/24 03:44:42;;;;;;;53.92;24.58;;;;;;;7.22;100.00;100191.28;5013365;28;20131;-79
2021/12/24 03:47:12;;;;;;;49.67;24.75;;;;;;;7.13;100.00;100195.53;5030614;28;20061;-79
2021/12/24 03:57:30;;;;;;;48.63;24.70;;;;;;;7.16;100.00;100191.88;5028779;28;20029;-79
2021/12/24 04:00:21;;;;;;;61.25;25.83;;;;;;;7.11;100.00;100187.16;5025517;28;20077;-78
2021/12/24 04:02:57;;;;;;;51.30;24.38;;;;;;;7.11;100.00;100189.72;5013161;28;20121;-80
2021/12/24 04:05:42;;;;;;;59.63;27.20;;;;;;;7.11;100.00;100197.47;5032273;28;20402;-79
2021/12/24 04:08:30;;;;;;;58.33;24.48;;;;;;;7.09;100.00;100194.22;5027902;28;20045;-79
2021/12/24 04:11:28;;;;;;;52.08;25.85;;;;;;;7.11;100.00;100194.09;5033191;28;20064;-79
2021/12/24 04:13:54;;;;;;;59.20;26.00;;;;;;;7.08;100.00;100196.94;5013274;28;20040;-79
2021/12/24 04:16:20;;;;;;;51.78;24.98;;;;;;;7.10;100.00;100202.75;5012138;28;20046;-81
2021/12/24 04:19:19;;;;;;;57.90;25.98;;;;;;;7.14;100.00;100207.50;5018059;28;20060;-80
2021/12/24 04:27:14;;;;;;;57.58;26.15;;;;;;;7.17;100.00;100199.44;5029827;28;20439;-80
2021/12/24 04:29:40;;;;;;;47.72;24.08;;;;;;;7.18;100.00;100193.34;5026545;28;20037;-79
2021/12/24 04:32:17;;;;;;;58.00;25.30;;;;;;;7.16;100.00;100204.78;5020652;28;20064;-79
2021/12/24 04:34:46;;;;;;;58.72;25.13;;;;;;;7.24;100.00;100206.59;5025165;28;20037;-80
2021/12/24 04:51:22;;;;;;;64.32;25.02;;;;;;;7.13;100.00;100210.22;5025214;28;20272;-79
2021/12/24 05:05:06;;;;;;;56.95;25.17;;;;;;;7.21;100.00;100211.09;5025526;28;20091;-78
2021/12/24 05:08:07;;;;;;;58.55;26.08;;;;;;;7.26;100.00;100202.91;5038107;28;20107;-80
2021/12/24 05:10:29;;;;;;;57.53;24.15;;;;;;;7.25;100.00;100218.53;5029385;28;20037;-81
2021/12/24 05:12:55;;;;;;;61.20;25.13;;;;;;;7.25;100.00;100213.38;5011714;28;20025;-79
2021/12/24 05:15:29;;;;;;;56.85;25.08;;;;;;;7.27;100.00;100217.44;5014812;28;20038;-78
2021/12/24 05:18:36;;;;;;;56.17;24.63;;;;;;;7.29;100.00;100222.41;5030105;28;20132;-78
2021/12/24 05:21:42;;;;;;;58.88;24.58;;;;;;;7.25;100.00;100229.63;5026956;28;20084;-80
2021/12/24 05:24:16;;;;;;;53.85;25.13;;;;;;;7.28;100.00;100223.41;5008156;28;20034;-79
2021/12/24 05:26:48;;;;;;;60.80;25.38;;;;;;;7.29;100.00;100220.69;5017202;28;20037;-77
2021/12/24 05:29:15;;;;;;;64.32;25.23;;;;;;;7.33;100.00;100226.34;5027044;28;20033;-79
2021/12/24 05:31:41;;;;;;;55.47;25.73;;;;;;;7.30;100.00;100218.91;5027912;28;20167;-79
2021/12/24 05:34:07;;;;;;;57.58;25.77;;;;;;;7.36;100.00;100226.84;5010092;28;20037;-77
2021/12/24 05:36:32;;;;;;;53.53;24.05;;;;;;;7.29;100.00;100227.59;5024553;28;20037;-80
2021/12/24 05:38:59;;;;;;;56.88;23.90;;;;;;;7.28;100.00;100229.34;5028373;28;20106;-78
2021/12/24 05:41:26;;;;;;;55.78;25.10;;;;;;;7.31;100.00;100236.81;5010704;28;20033;-80
2021/12/24 05:43:52;;;;;;;55.25;24.25;;;;;;;7.32;100.00;100229.88;5026900;28;20041;-80
2021/12/24 05:46:18;;;;;;;53.22;23.00;;;;;;;7.31;100.00;100230.81;5010025;28;20053;-79
2021/12/24 05:48:55;;;;;;;54.83;24.50;;;;;;;7.31;100.00;100230.81;5044703;28;20149;-79
2021/12/24 05:51:26;;;;;;;52.50;23.75;;;;;;;7.27;100.00;100234.66;5035376;28;20033;-78
2021/12/24 05:54:14;;;;;;;54.72;23.90;;;;;;;7.27;100.00;100239.81;5025065;28;20068;-79
2021/12/24 05:56:40;;;;;;;59.22;25.85;;;;;;;7.27;100.00;100238.06;5044997;28;20504;-79
2021/12/24 05:59:17;;;;;;;57.50;24.95;;;;;;;7.31;100.00;100230.81;5015333;28;20392;-80
2021/12/24 06:01:43;;;;;;;61.42;24.95;;;;;;;7.33;100.00;100232.31;5021607;28;20040;-80
2021/12/24 06:04:09;;;;;;;61.67;23.67;;;;;;;7.36;100.00;100226.03;5023492;28;20368;-78
2021/12/24 06:06:34;;;;;;;50.88;23.55;;;;;;;7.33;100.00;100223.78;5036493;28;20034;-80
2021/12/24 06:09:00;;;;;;;53.10;22.77;;;;;;;7.37;100.00;100220.72;5037920;28;20030;-80
2021/12/24 06:11:25;;;;;;;53.70;22.13;;;;;;;7.38;100.00;100234.44;5034069;28;20373;-79
2021/12/24 06:13:54;;;;;;;62.63;21.98;;;;;;;7.37;100.00;100230.25;5032665;28;20037;-80
2021/12/24 06:16:20;;;;;;;49.80;22.92;;;;;;;7.33;100.00;100241.81;5034034;28;20036;-79
2021/12/24 06:18:45;;;;;;;49.53;22.65;;;;;;;7.41;100.00;100228.97;5018636;28;20029;-78
2021/12/24 06:21:11;;;;;;;51.80;22.98;;;;;;;7.41;100.00;100228.97;5028943;28;20056;-79
2021/12/24 06:23:40;;;;;;;55.75;23.10;;;;;;;7.33;100.00;100240.03;5047825;28;20037;-79
2021/12/24 06:26:07;;;;;;;65.43;25.10;;;;;;;7.30;100.00;100242.09;5039712;28;20032;-79
2021/12/24 06:28:35;;;;;;;54.38;23.27;;;;;;;7.37;100.00;100251.69;5017848;28;20464;-80
2021/12/24 06:31:02;;;;;;;53.35;23.17;;;;;;;7.33;100.00;100252.13;5018481;28;20045;-80
2021/12/24 06:33:29;;;;;;;52.17;23.35;;;;;;;7.30;100.00;100257.59;5031858;28;20025;-78
2021/12/24 06:35:56;;;;;;;53.55;23.00;;;;;;;7.34;100.00;100251.16;5043489;28;20067;-81
2021/12/24 06:38:22;;;;;;;57.03;24.30;;;;;;;7.33;100.00;100249.56;5025545;28;20052;-81
2021/12/24 06:40:47;;;;;;;58.88;23.88;;;;;;;7.40;100.00;100245.41;5035255;28;20037;-79
2021/12/24 06:43:13;;;;;;;49.67;24.13;;;;;;;7.40;100.00;100241.06;5032699;28;20037;-78
2021/12/24 06:45:39;;;;;;;51.85;23.38;;;;;;;7.37;100.00;100243.94;5021938;28;20029;-79
2021/12/24 06:48:05;;;;;;;55.80;23.27;;;;;;;7.37;100.00;100243.13;5035689;28;20040;-79
2021/12/24 06:50:31;;;;;;;48.42;23.83;;;;;;;7.41;100.00;100242.69;5034130;28;20124;-78
2021/12/24 06:52:57;;;;;;;57.97;22.95;;;;;;;7.40;100.00;100242.81;5034235;28;20483;-80
2021/12/24 06:55:24;;;;;;;55.75;23.52;;;;;;;7.34;100.00;100241.66;5036653;28;20037;-79
2021/12/24 06:57:55;;;;;;;51.20;22.58;;;;;;;7.39;100.00;100238.66;5020992;28;20446;-78
2021/12/24 07:00:22;;;;;;;66.13;25.30;;;;;;;7.38;100.00;100237.84;5029959;28;20033;-78
2021/12/24 07:02:50;;;;;;;62.60;25.13;;;;;;;7.38;100.00;100239.59;5032780;28;20033;-79
2021/12/24 07:05:17;;;;;;;54.20;23.17;;;;;;;7.38;100.00;100252.50;5015088;28;20480;-78
2021/12/24 07:07:42;;;;;;;57.28;22.85;;;;;;;7.35;100.00;100257.97;5045960;28;20025;-80
2021/12/24 07:10:08;;;;;;;69.43;27.50;;;;;;;7.40;100.00;100253.16;5019129;28;20558;-80
2021/12/24 07:12:34;;;;;;;56.65;24.63;;;;;;;7.37;100.00;100249.09;5018833;28;20462;-79
2021/12/24 07:15:00;;;;;;;60.00;27.35;;;;;;;7.32;100.00;100255.66;5046387;28;20037;-79
2021/12/24 07:17:26;;;;;;;90.55;33.97;;;;;;;7.34;100.00;100254.53;5020631;28;20036;-79
2021/12/24 07:19:52;;;;;;;157.50;55.08;;;;;;;7.33;100.00;100255.53;5037867;28;20053;-80
2021/12/24 07:22:18;;;;;;;87.25;31.75;;;;;;;7.36;100.00;100251.81;5016114;28;20496;-80
2021/12/24 07:24:44;;;;;;;106.47;37.88;;;;;;;7.38;100.00;100261.06;5032121;28;20475;-78
2021/12/24 07:27:10;;;;;;;130.40;45.38;;;;;;;7.37;100.00;100266.34;5031407;28;20061;-79
2021/12/24 07:29:37;;;;;;;132.30;46.95;;;;;;;7.32;100.00;100260.81;5014390;28;20144;-78
2021/12/24 07:32:04;;;;;;;91.30;38.13;;;;;;;7.34;100.00;100269.22;5027701;28;20044;-80
2021/12/24 07:34:30;;;;;;;143.63;47.42;;;;;;;7.40;100.00;100266.88;5018695;28;20144;-78
2021/12/24 07:36:56;;;;;;;126.18;44.22;;;;;;;7.43;100.00;100267.53;5038797;28;20472;-80
2021/12/24 07:39:21;;;;;;;98.25;40.45;;;;;;;7.39;100.00;100262.66;5022545;28;20122;-79
2021/12/24 07:41:47;;;;;;;100.13;40.88;;;;;;;7.36;100.00;100267.31;5028969;28;20030;-79
2021/12/24 07:44:17;;;;;;;79.05;33.78;;;;;;;7.35;100.00;100265.69;5042509;28;20096;-80
2021/12/24 07:46:49;;;;;;;62.72;25.33;;;;;;;7.35;100.00;100261.34;5022334;28;20068;-80
2021/12/24 07:49:29;;;;;;;64.53;28.02;;;;;;;7.36;100.00;100273.25;5031241;28;20035;-79
2021/12/24 07:52:09;;;;;;;53.58;21.98;;;;;;;7.36;100.00;100280.19;5026586;28;20056;-80
2021/12/24 07:54:44;;;;;;;71.88;28.95;;;;;;;7.34;100.00;100275.19;5029985;28;20559;-80
2021/12/24 07:57:12;;;;;;;58.65;24.00;;;;;;;7.43;100.00;100270.13;5042357;28;20464;-80
2021/12/24 07:59:40;;;;;;;58.97;22.10;;;;;;;7.40;100.00;100264.28;5011898;28;20034;-80
2021/12/24 08:02:14;;;;;;;55.50;23.08;;;;;;;7.34;100.00;100254.53;5043975;28;20042;-79
2021/12/24 08:04:39;;;;;;;65.05;25.98;;;;;;;7.35;100.00;100260.53;5021925;28;20037;-78
2021/12/24 08:07:06;;;;;;;66.35;22.88;;;;;;;7.39;100.00;100252.34;5033949;28;20029;-79
2021/12/24 08:09:32;;;;;;;69.25;23.20;;;;;;;7.34;100.00;100256.31;5019301;28;20037;-80
2021/12/24 08:11:57;;;;;;;60.38;21.83;;;;;;;7.42;100.00;100251.22;5039289;28;20021;-81
2021/12/24 08:14:23;;;;;;;54.83;20.95;;;;;;;7.41;100.00;100250.41;5020906;28;20389;-80
2021/12/24 08:16:48;;;;;;;59.33;22.02;;;;;;;7.44;100.00;100253.66;5031655;28;20074;-82
2021/12/24 08:19:16;;;;;;;57.60;21.95;;;;;;;7.41;100.00;100258.16;5013444;28;20051;-79
2021/12/24 08:21:43;;;;;;;53.70;20.77;;;;;;;7.42;100.00;100256.38;5018528;28;20032;-81
2021/12/24 08:24:09;;;;;;;56.22;21.83;;;;;;;7.42;100.00;100253.81;5048487;28;20037;-79
2021/12/24 08:26:34;;;;;;;56.03;21.02;;;;;;;7.40;100.00;100263.47;5027414;28;20451;-79
2021/12/24 08:29:00;;;;;;;56.50;20.85;;;;;;;7.39;100.00;100257.50;5047658;28;20033;-80
2021/12/24 08:31:25;;;;;;;52.78;21.40;;;;;;;7.36;100.00;100252.63;5030049;28;20137;-80
2021/12/24 08:33:51;;;;;;;58.60;23.23;;;;;;;7.37;100.00;100266.34;5032922;28;20047;-80
2021/12/24 08:36:17;;;;;;;47.88;21.05;;;;;;;7.50;100.00;100268.56;5029819;28;20037;-80
2021/12/24 08:38:42;;;;;;;59.08;21.80;;;;;;;7.50;100.00;100258.25;5021690;28;20060;-80
2021/12/24 08:41:08;;;;;;;60.85;21.48;;;;;;;7.48;100.00;100247.25;5016275;28;20491;-80
2021/12/24 08:43:33;;;;;;;64.53;21.63;;;;;;;7.42;100.00;100251.22;5010446;28;20459;-80
2021/12/24 08:45:59;;;;;;;54.55;21.60;;;;;;;7.40;100.00;100247.97;5035447;28;20033;-81
2021/12/24 08:48:25;;;;;;;53.33;20.40;;;;;;;7.43;100.00;100242.53;5033482;28;20071;-79
2021/12/24 08:50:50;;;;;;;51.60;20.70;;;;;;;7.50;100.00;100241.00;5034750;28;20033;-81
2021/12/24 08:53:16;;;;;;;60.95;21.40;;;;;;;7.50;100.00;100233.25;5027843;28;20026;-81
2021/12/24 08:55:41;;;;;;;53.10;21.70;;;;;;;7.45;100.00;100243.19;5007706;28;20080;-79
2021/12/24 08:58:07;;;;;;;57.80;21.23;;;;;;;7.49;100.00;100238.56;5025843;28;20116;-81
2021/12/24 09:00:35;;;;;;;60.15;21.20;;;;;;;7.57;100.00;100238.59;5015391;28;20044;-79
2021/12/24 09:03:02;;;;;;;49.38;19.40;;;;;;;7.50;100.00;100235.03;5011870;28;20457;-79
2021/12/24 09:05:28;;;;;;;54.58;18.50;;;;;;;7.51;100.00;100229.69;5013021;28;20048;-80
2021/12/24 09:07:54;;;;;;;54.00;18.75;;;;;;;7.58;100.00;100224.75;5014159;28;20060;-79
2021/12/24 09:10:19;;;;;;;43.53;18.40;;;;;;;7.59;100.00;100237.53;5040989;28;20044;-80
2021/12/24 09:12:45;;;;;;;52.55;19.67;;;;;;;7.63;100.00;100226.88;5028640;28;20037;-80
2021/12/24 09:15:13;;;;;;;48.40;17.67;;;;;;;7.58;100.00;100235.88;5036360;28;20367;-79
2021/12/24 09:17:45;;;;;;;48.40;18.70;;;;;;;7.57;100.00;100228.28;5026876;28;20052;-81
2021/12/24 09:20:19;;;;;;;55.20;18.70;;;;;;;7.59;100.00;100226.38;5034450;28;20049;-80
2021/12/24 09:22:46;;;;;;;47.22;17.33;;;;;;;7.60;100.00;100225.41;5037858;28;20040;-80
2021/12/24 09:25:12;;;;;;;51.33;18.58;;;;;;;7.62;100.00;100223.50;5028197;28;20088;-80
2021/12/24 09:27:38;;;;;;;51.45;19.08;;;;;;;7.59;100.00;100226.38;5034124;28;20060;-80
2021/12/24 09:30:04;;;;;;;52.58;18.42;;;;;;;7.63;100.00;100211.41;5026160;28;20443;-82
2021/12/24 09:32:30;;;;;;;44.38;17.17;;;;;;;7.62;100.00;100218.34;5036725;28;20487;-80
2021/12/24 09:34:57;;;;;;;54.80;20.27;;;;;;;7.57;100.00;100205.06;5028569;28;20037;-80
2021/12/24 09:37:23;;;;;;;52.03;18.85;;;;;;;7.60;100.00;100215.09;5011930;28;20122;-80
2021/12/24 09:39:48;;;;;;;43.40;16.85;;;;;;;7.63;100.00;100213.97;5031098;28;20073;-81
2021/12/24 09:42:14;;;;;;;43.78;16.27;;;;;;;7.65;100.00;100214.63;5028454;28;20341;-80
2021/12/24 09:44:40;;;;;;;52.20;18.92;;;;;;;7.65;100.00;100218.03;5014169;28;20037;-80
2021/12/24 09:47:06;;;;;;;40.53;15.40;;;;;;;7.67;100.00;100221.28;5029132;28;20036;-79
2021/12/24 09:49:32;;;;;;;50.10;16.85;;;;;;;7.74;100.00;100214.56;5031456;28;20478;-80
2021/12/24 09:52:00;;;;;;;50.58;16.73;;;;;;;7.79;100.00;100214.88;5013252;28;20037;-80
2021/12/24 09:54:25;;;;;;;41.28;15.82;;;;;;;7.77;100.00;100214.22;5029978;28;20108;-79
2021/12/24 09:56:53;;;;;;;42.97;15.93;;;;;;;7.82;100.00;100213.78;5028118;28;20199;-81
2021/12/24 09:59:18;;;;;;;42.33;15.15;;;;;;;7.86;100.00;100202.19;5022049;28;20412;-80
2021/12/24 10:01:54;;;;;;;44.10;14.98;;;;;;;7.88;100.00;100199.47;5015778;28;20105;-79
2021/12/24 10:04:21;;;;;;;43.53;14.45;;;;;;;7.92;99.39;100203.34;5028143;28;20056;-80
2021/12/24 10:06:52;;;;;;;42.92;15.00;;;;;;;7.95;99.33;100198.69;5029303;28;20041;-80
2021/12/24 10:09:18;;;;;;;47.72;14.85;;;;;;;7.94;98.92;100202.22;5028202;28;20071;-80
2021/12/24 10:11:49;;;;;;;36.45;13.27;;;;;;;7.96;98.27;100204.66;5012436;28;20076;-79
2021/12/24 10:14:20;;;;;;;33.63;13.73;;;;;;;7.97;97.91;100204.53;5012557;28;20044;-80
2021/12/24 10:16:49;;;;;;;39.65;12.93;;;;;;;8.00;97.78;100198.22;5025294;28;20041;-80
2021/12/24 10:19:15;;;;;;;35.90;13.20;;;;;;;7.93;98.00;100199.81;5007640;28;20061;-80
2021/12/24 10:21:42;;;;;;;39.22;13.15;;;;;;;7.95;98.16;100205.66;5025877;28;20477;-81
2021/12/24 10:24:08;;;;;;;36.47;13.10;;;;;;;7.93;98.14;100207.53;5023738;28;20191;-77
2021/12/24 10:26:54;;;;;;;44.38;14.73;;;;;;;7.95;98.07;100213.41;5022186;28;20051;-78
2021/12/24 10:29:27;;;;;;;40.65;13.88;;;;;;;7.96;98.10;100215.00;5015068;28;20108;-79
2021/12/24 10:31:56;;;;;;;45.33;13.57;;;;;;;8.00;97.65;100213.72;5028963;28;20029;-79
2021/12/24 10:34:27;;;;;;;33.78;12.43;;;;;;;7.90;97.95;100218.19;5034412;28;20045;-80
2021/12/24 10:37:01;;;;;;;38.70;13.85;;;;;;;7.96;97.67;100217.56;5030481;28;20436;-79
2021/12/24 10:39:30;;;;;;;41.03;16.10;;;;;;;7.92;97.75;100211.09;5026657;28;20144;-79
2021/12/24 10:41:57;;;;;;;41.65;14.10;;;;;;;7.90;98.18;100206.09;5017328;28;20046;-79
2021/12/24 10:44:32;;;;;;;40.05;14.65;;;;;;;7.97;97.70;100209.69;5007955;28;20033;-78
2021/12/24 10:47:07;;;;;;;41.30;14.55;;;;;;;7.94;97.61;100207.41;5029348;28;20510;-79
2021/12/24 10:52:28;;;;;;;41.00;14.82;;;;;;;8.11;96.96;100210.88;5032920;28;20115;-81
2021/12/24 10:54:58;;;;;;;41.20;14.82;;;;;;;8.21;96.69;100202.19;5031606;28;20093;-79
2021/12/24 10:57:26;;;;;;;42.90;13.45;;;;;;;8.19;96.48;100199.78;5046423;28;20480;-79
2021/12/24 10:59:54;;;;;;;31.52;13.95;;;;;;;8.19;96.66;100215.25;5030769;28;20443;-81
2021/12/24 11:02:24;;;;;;;36.78;14.07;;;;;;;8.17;96.49;100212.03;5020964;28;20024;-80
2021/12/24 11:04:53;;;;;;;43.45;13.70;;;;;;;8.17;96.96;100215.44;5021385;28;20037;-78
2021/12/24 11:07:40;;;;;;;48.60;14.32;;;;;;;8.22;96.26;100204.63;5034550;28;20091;-79
2021/12/24 11:10:12;;;;;;;43.58;14.05;;;;;;;8.27;96.28;100205.00;5009279;28;20033;-78
2021/12/24 11:12:40;;;;;;;37.92;13.43;;;;;;;8.27;95.75;100210.16;5020831;28;20042;-79
2021/12/24 11:15:28;;;;;;;35.28;13.32;;;;;;;8.33;95.40;100200.97;5026989;28;20048;-78
2021/12/24 11:17:56;;;;;;;33.97;12.80;;;;;;;8.32;95.64;100202.72;5008916;28;20681;-79
2021/12/24 11:20:23;;;;;;;38.10;13.93;;;;;;;8.37;95.49;100199.69;5013264;28;20055;-78
2021/12/24 11:22:54;;;;;;;32.28;13.65;;;;;;;8.44;94.92;100192.13;5014099;28;20034;-80
2021/12/24 11:25:22;;;;;;;32.85;13.60;;;;;;;8.43;94.95;100198.28;5016939;28;21402;-79
2021/12/24 11:27:48;;;;;;;34.20;13.90;;;;;;;8.37;94.88;100191.94;5026602;28;20126;-78
2021/12/24 11:30:15;;;;;;;38.38;14.63;;;;;;;8.34;94.99;100190.50;5008903;28;20115;-79
2021/12/24 11:32:41;;;;;;;48.42;19.10;;;;;;;8.33;94.93;100188.84;5035895;28;20107;-80
2021/12/24 11:35:06;;;;;;;65.38;20.52;;;;;;;8.30;95.21;100188.34;5031163;28;20390;-79
2021/12/24 11:37:33;;;;;;;83.35;25.70;;;;;;;8.25;95.39;100194.00;5038879;28;20048;-80
2021/12/24 11:40:02;;;;;;;137.75;39.15;;;;;;;8.26;95.20;100198.19;5034176;28;20030;-82
2021/12/24 11:42:32;;;;;;;129.18;38.30;;;;;;;8.21;95.48;100199.63;5030036;28;20442;-79
2021/12/24 11:45:00;;;;;;;117.13;38.65;;;;;;;8.24;95.22;100191.56;5029915;28;20037;-79
2021/12/24 11:47:26;;;;;;;78.95;25.80;;;;;;;8.23;95.29;100192.53;5031623;28;20441;-78
2021/12/24 11:49:52;;;;;;;86.40;30.45;;;;;;;8.22;95.70;100193.50;5030580;28;20041;-78
2021/12/24 11:52:17;;;;;;;100.47;35.20;;;;;;;8.18;95.82;100187.84;5034197;28;20034;-80
2021/12/24 11:54:44;;;;;;;60.30;24.30;;;;;;;8.16;95.85;100182.03;5037875;28;20041;-79
2021/12/24 11:57:20;;;;;;;63.55;24.83;;;;;;;8.12;96.07;100178.13;5019920;28;20037;-77
2021/12/24 11:59:46;;;;;;;59.90;23.65;;;;;;;8.13;95.73;100174.56;5030291;28;20120;-79
2021/12/24 12:02:38;;;;;;;55.70;21.88;;;;;;;8.14;95.87;100189.13;5029852;28;20033;-78
2021/12/24 12:05:24;;;;;;;53.90;22.80;;;;;;;8.07;96.07;100177.78;5015875;28;20037;-79
2021/12/24 12:07:51;;;;;;;45.08;20.85;;;;;;;8.10;96.55;100180.88;5038487;28;20480;-79
2021/12/24 12:10:52;;;;;;;36.65;17.10;;;;;;;8.15;96.05;100176.03;5018139;28;20040;-77
2021/12/24 12:13:41;;;;;;;53.00;24.10;;;;;;;8.13;96.00;100177.94;5013530;28;20029;-79
2021/12/24 12:16:09;;;;;;;37.17;16.45;;;;;;;8.24;95.62;100182.03;5021566;28;20133;-79
2021/12/24 12:18:44;;;;;;;42.78;17.88;;;;;;;8.20;95.52;100185.91;5029758;28;20030;-78
2021/12/24 12:21:34;;;;;;;40.38;17.63;;;;;;;8.28;95.50;100183.34;5039280;28;20037;-79
2021/12/24 12:26:52;;;;;;;34.92;14.15;;;;;;;8.30;95.24;100183.19;5000750;28;20053;-79
2021/12/24 12:29:29;;;;;;;39.40;18.45;;;;;;;8.35;94.38;100183.53;5028188;28;20500;-79
2021/12/24 12:32:15;;;;;;;46.55;16.88;;;;;;;8.30;94.51;100190.94;5025837;28;20026;-78
2021/12/24 12:34:41;;;;;;;51.65;22.92;;;;;;;8.31;94.41;100187.41;5031974;28;20056;-80
2021/12/24 12:37:31;;;;;;;36.50;12.70;;;;;;;8.32;93.96;100189.81;5043223;28;20037;-79
2021/12/24 12:40:06;;;;;;;38.97;14.82;;;;;;;8.27;93.95;100186.91;5016968;28;20439;-79
2021/12/24 12:42:58;;;;;;;41.88;16.15;;;;;;;8.32;94.09;100181.25;5028237;28;20692;-80
2021/12/24 12:45:32;;;;;;;39.03;16.23;;;;;;;8.29;94.06;100190.16;5028711;28;20047;-79
2021/12/24 12:48:01;;;;;;;31.50;15.02;;;;;;;8.29;93.97;100190.16;5031203;28;20459;-78
2021/12/24 12:50:28;;;;;;;33.42;13.88;;;;;;;8.27;94.06;100179.16;5045745;28;20036;-79
2021/12/24 12:53:22;;;;;;;34.67;13.57;;;;;;;8.27;94.05;100183.50;5023468;28;20068;-79
2021/12/24 12:55:48;;;;;;;;;;;;;;;8.18;94.58;100188.63;5019168;28;20452;-78
2021/12/24 12:58:24;;;;;;;39.30;15.65;;;;;;;8.17;94.35;100184.44;5032430;28;19920;-79
2021/12/24 13:01:04;;;;;;;43.13;14.98;;;;;;;8.18;94.76;100180.88;5043286;28;20552;-79
2021/12/24 13:03:29;;;;;;;31.52;12.80;;;;;;;8.18;94.73;100172.34;5034592;28;20037;-79